sensor_id;sensor_type;location;lat;lon;timestamp;P1;durP1;ratioP1;P2;durP2;ratioP2
6442;SDS011;3254;47.372;8.512;2023-10-09T00:00:26;16.17;;;6.50;;
6442;SDS011;3254;47.372;8.512;2023-10-09T00:03:15;16.60;;;6.37;;
6442;SDS011;3254;47.372;8.512;2023-10-09T00:05:45;20.33;;;6.83;;
6442;SDS011;3254;47.372;8.512;2023-10-09T00:08:29;23.37;;;8.13;;
6442;SDS011;3254;47.372;8.512;2023-10-09T00:11:01;15.97;;;7.70;;
6442;SDS011;3254;47.372;8.512;2023-10-09T00:13:45;24.47;;;7.33;;
6442;SDS011;3254;47.372;8.512;2023-10-09T00:16:15;14.93;;;7.00;;
6442;SDS011;3254;47.372;8.512;2023-10-09T00:18:41;22.53;;;8.57;;
6442;SDS011;3254;47.372;8.512;2023-10-09T00:21:17;19.13;;;7.10;;
6442;SDS011;3254;47.372;8.512;2023-10-09T00:23:47;23.30;;;7.83;;
6442;SDS011;3254;47.372;8.512;2023-10-09T00:26:24;23.43;;;7.40;;
6442;SDS011;3254;47.372;8.512;2023-10-09T00:28:51;33.27;;;7.97;;
6442;SDS011;3254;47.372;8.512;2023-10-09T00:31:18;20.27;;;7.63;;
6442;SDS011;3254;47.372;8.512;2023-10-09T00:34:17;24.10;;;7.27;;
6442;SDS011;3254;47.372;8.512;2023-10-09T00:36:48;23.43;;;7.60;;
6442;SDS011;3254;47.372;8.512;2023-10-09T00:39:20;26.97;;;7.60;;
6442;SDS011;3254;47.372;8.512;2023-10-09T00:42:06;21.03;;;6.93;;
6442;SDS011;3254;47.372;8.512;2023-10-09T00:44:33;25.70;;;7.50;;
6442;SDS011;3254;47.372;8.512;2023-10-09T00:47:07;28.53;;;6.97;;
6442;SDS011;3254;47.372;8.512;2023-10-09T00:49:57;18.80;;;7.23;;
6442;SDS011;3254;47.372;8.512;2023-10-09T00:52:28;30.63;;;7.40;;
6442;SDS011;3254;47.372;8.512;2023-10-09T00:54:58;21.10;;;7.33;;
6442;SDS011;3254;47.372;8.512;2023-10-09T00:57:29;14.60;;;6.53;;
6442;SDS011;3254;47.372;8.512;2023-10-09T00:59:57;23.00;;;7.20;;
6442;SDS011;3254;47.372;8.512;2023-10-09T01:02:27;28.63;;;7.63;;
6442;SDS011;3254;47.372;8.512;2023-10-09T01:05:03;21.23;;;6.80;;
6442;SDS011;3254;47.372;8.512;2023-10-09T01:07:43;30.20;;;7.53;;
6442;SDS011;3254;47.372;8.512;2023-10-09T01:10:14;21.43;;;7.20;;
6442;SDS011;3254;47.372;8.512;2023-10-09T01:12:43;18.97;;;6.43;;
6442;SDS011;3254;47.372;8.512;2023-10-09T01:15:11;23.90;;;7.47;;
6442;SDS011;3254;47.372;8.512;2023-10-09T01:18:00;21.20;;;7.47;;
6442;SDS011;3254;47.372;8.512;2023-10-09T01:20:27;22.03;;;7.20;;
6442;SDS011;3254;47.372;8.512;2023-10-09T01:23:01;19.87;;;6.27;;
6442;SDS011;3254;47.372;8.512;2023-10-09T01:25:27;23.13;;;6.63;;
6442;SDS011;3254;47.372;8.512;2023-10-09T01:28:06;20.60;;;7.20;;
6442;SDS011;3254;47.372;8.512;2023-10-09T01:30:32;27.57;;;9.20;;
6442;SDS011;3254;47.372;8.512;2023-10-09T01:33:08;28.23;;;6.37;;
6442;SDS011;3254;47.372;8.512;2023-10-09T01:35:47;31.17;;;7.20;;
6442;SDS011;3254;47.372;8.512;2023-10-09T01:38:15;22.20;;;6.73;;
6442;SDS011;3254;47.372;8.512;2023-10-09T01:40:41;28.33;;;7.40;;
6442;SDS011;3254;47.372;8.512;2023-10-09T01:43:10;27.13;;;6.60;;
6442;SDS011;3254;47.372;8.512;2023-10-09T01:45:36;18.40;;;7.27;;
6442;SDS011;3254;47.372;8.512;2023-10-09T01:48:12;24.63;;;6.90;;
6442;SDS011;3254;47.372;8.512;2023-10-09T01:50:44;20.17;;;6.90;;
6442;SDS011;3254;47.372;8.512;2023-10-09T01:53:14;22.20;;;6.07;;
6442;SDS011;3254;47.372;8.512;2023-10-09T01:55:43;15.63;;;6.03;;
6442;SDS011;3254;47.372;8.512;2023-10-09T01:58:11;19.57;;;6.00;;
6442;SDS011;3254;47.372;8.512;2023-10-09T02:01:02;17.30;;;6.90;;
6442;SDS011;3254;47.372;8.512;2023-10-09T02:03:31;19.70;;;7.13;;
6442;SDS011;3254;47.372;8.512;2023-10-09T02:06:02;21.57;;;7.60;;
6442;SDS011;3254;47.372;8.512;2023-10-09T02:08:33;25.40;;;6.97;;
6442;SDS011;3254;47.372;8.512;2023-10-09T02:11:02;25.97;;;7.47;;
6442;SDS011;3254;47.372;8.512;2023-10-09T02:13:29;26.00;;;8.23;;
6442;SDS011;3254;47.372;8.512;2023-10-09T02:15:57;31.37;;;6.93;;
6442;SDS011;3254;47.372;8.512;2023-10-09T02:18:41;23.77;;;6.83;;
6442;SDS011;3254;47.372;8.512;2023-10-09T02:21:19;25.77;;;7.03;;
6442;SDS011;3254;47.372;8.512;2023-10-09T02:23:58;25.67;;;7.10;;
6442;SDS011;3254;47.372;8.512;2023-10-09T02:26:30;22.23;;;6.63;;
6442;SDS011;3254;47.372;8.512;2023-10-09T02:29:04;29.23;;;7.70;;
6442;SDS011;3254;47.372;8.512;2023-10-09T02:31:41;14.43;;;8.20;;
6442;SDS011;3254;47.372;8.512;2023-10-09T02:34:12;29.93;;;8.97;;
6442;SDS011;3254;47.372;8.512;2023-10-09T02:36:41;20.33;;;8.57;;
6442;SDS011;3254;47.372;8.512;2023-10-09T02:39:07;18.57;;;7.87;;
6442;SDS011;3254;47.372;8.512;2023-10-09T02:41:46;20.13;;;8.20;;
6442;SDS011;3254;47.372;8.512;2023-10-09T02:44:14;17.60;;;7.03;;
6442;SDS011;3254;47.372;8.512;2023-10-09T02:46:41;20.77;;;7.27;;
6442;SDS011;3254;47.372;8.512;2023-10-09T02:49:10;21.20;;;7.80;;
6442;SDS011;3254;47.372;8.512;2023-10-09T02:51:41;22.00;;;8.40;;
6442;SDS011;3254;47.372;8.512;2023-10-09T02:54:09;20.83;;;7.63;;
6442;SDS011;3254;47.372;8.512;2023-10-09T02:56:49;20.77;;;7.70;;
6442;SDS011;3254;47.372;8.512;2023-10-09T02:59:30;27.60;;;8.43;;
6442;SDS011;3254;47.372;8.512;2023-10-09T03:01:56;19.80;;;7.00;;
6442;SDS011;3254;47.372;8.512;2023-10-09T03:04:25;20.13;;;8.33;;
6442;SDS011;3254;47.372;8.512;2023-10-09T03:06:56;16.83;;;7.30;;
6442;SDS011;3254;47.372;8.512;2023-10-09T03:09:25;23.10;;;7.67;;
6442;SDS011;3254;47.372;8.512;2023-10-09T03:12:01;20.27;;;7.50;;
6442;SDS011;3254;47.372;8.512;2023-10-09T03:14:30;18.43;;;7.40;;
6442;SDS011;3254;47.372;8.512;2023-10-09T03:16:56;21.30;;;8.40;;
6442;SDS011;3254;47.372;8.512;2023-10-09T03:19:26;19.57;;;7.63;;
6442;SDS011;3254;47.372;8.512;2023-10-09T03:21:55;23.17;;;7.83;;
6442;SDS011;3254;47.372;8.512;2023-10-09T03:24:22;18.83;;;7.93;;
6442;SDS011;3254;47.372;8.512;2023-10-09T03:26:49;18.73;;;7.47;;
6442;SDS011;3254;47.372;8.512;2023-10-09T03:29:15;28.90;;;7.27;;
6442;SDS011;3254;47.372;8.512;2023-10-09T03:31:45;23.57;;;7.27;;
6442;SDS011;3254;47.372;8.512;2023-10-09T03:34:11;25.93;;;7.73;;
6442;SDS011;3254;47.372;8.512;2023-10-09T03:36:37;25.60;;;7.13;;
6442;SDS011;3254;47.372;8.512;2023-10-09T03:39:04;18.40;;;6.67;;
6442;SDS011;3254;47.372;8.512;2023-10-09T03:41:52;23.50;;;7.63;;
6442;SDS011;3254;47.372;8.512;2023-10-09T03:44:19;24.00;;;7.40;;
6442;SDS011;3254;47.372;8.512;2023-10-09T03:46:46;19.77;;;7.00;;
6442;SDS011;3254;47.372;8.512;2023-10-09T03:49:16;30.20;;;7.53;;
6442;SDS011;3254;47.372;8.512;2023-10-09T03:51:48;25.53;;;9.00;;
6442;SDS011;3254;47.372;8.512;2023-10-09T03:54:14;25.87;;;8.83;;
6442;SDS011;3254;47.372;8.512;2023-10-09T03:56:43;15.50;;;7.10;;
6442;SDS011;3254;47.372;8.512;2023-10-09T03:59:09;26.03;;;8.00;;
6442;SDS011;3254;47.372;8.512;2023-10-09T04:01:37;16.00;;;7.30;;
6442;SDS011;3254;47.372;8.512;2023-10-09T04:04:05;21.40;;;7.70;;
6442;SDS011;3254;47.372;8.512;2023-10-09T04:06:38;30.27;;;8.33;;
6442;SDS011;3254;47.372;8.512;2023-10-09T04:09:05;22.53;;;7.60;;
6442;SDS011;3254;47.372;8.512;2023-10-09T04:11:52;17.87;;;7.70;;
6442;SDS011;3254;47.372;8.512;2023-10-09T04:14:38;23.00;;;7.33;;
6442;SDS011;3254;47.372;8.512;2023-10-09T04:17:15;24.20;;;7.87;;
6442;SDS011;3254;47.372;8.512;2023-10-09T04:19:47;29.30;;;7.47;;
6442;SDS011;3254;47.372;8.512;2023-10-09T04:22:38;24.60;;;7.17;;
6442;SDS011;3254;47.372;8.512;2023-10-09T04:25:17;32.33;;;7.30;;
6442;SDS011;3254;47.372;8.512;2023-10-09T04:27:54;25.50;;;7.03;;
6442;SDS011;3254;47.372;8.512;2023-10-09T04:30:36;15.53;;;6.60;;
6442;SDS011;3254;47.372;8.512;2023-10-09T04:33:11;20.97;;;7.47;;
6442;SDS011;3254;47.372;8.512;2023-10-09T04:36:12;29.60;;;7.90;;
6442;SDS011;3254;47.372;8.512;2023-10-09T04:38:43;32.33;;;7.97;;
6442;SDS011;3254;47.372;8.512;2023-10-09T04:41:21;13.57;;;6.43;;
6442;SDS011;3254;47.372;8.512;2023-10-09T04:43:54;25.33;;;7.20;;
6442;SDS011;3254;47.372;8.512;2023-10-09T04:46:41;18.33;;;8.47;;
6442;SDS011;3254;47.372;8.512;2023-10-09T04:49:10;26.53;;;7.23;;
6442;SDS011;3254;47.372;8.512;2023-10-09T04:51:53;22.73;;;7.17;;
6442;SDS011;3254;47.372;8.512;2023-10-09T04:54:49;21.63;;;7.83;;
6442;SDS011;3254;47.372;8.512;2023-10-09T04:57:42;18.20;;;7.23;;
6442;SDS011;3254;47.372;8.512;2023-10-09T05:00:10;20.40;;;7.90;;
6442;SDS011;3254;47.372;8.512;2023-10-09T05:02:55;17.77;;;6.40;;
6442;SDS011;3254;47.372;8.512;2023-10-09T05:08:08;28.30;;;8.60;;
6442;SDS011;3254;47.372;8.512;2023-10-09T05:10:52;18.50;;;7.90;;
6442;SDS011;3254;47.372;8.512;2023-10-09T05:13:22;23.10;;;8.60;;
6442;SDS011;3254;47.372;8.512;2023-10-09T05:16:10;35.23;;;7.90;;
6442;SDS011;3254;47.372;8.512;2023-10-09T05:19:03;29.43;;;8.77;;
6442;SDS011;3254;47.372;8.512;2023-10-09T05:21:33;26.87;;;8.90;;
6442;SDS011;3254;47.372;8.512;2023-10-09T05:24:07;33.67;;;8.90;;
6442;SDS011;3254;47.372;8.512;2023-10-09T05:26:40;38.23;;;9.23;;
6442;SDS011;3254;47.372;8.512;2023-10-09T05:31:59;25.07;;;8.73;;
6442;SDS011;3254;47.372;8.512;2023-10-09T05:34:53;23.70;;;8.03;;
6442;SDS011;3254;47.372;8.512;2023-10-09T05:40:08;29.47;;;8.73;;
6442;SDS011;3254;47.372;8.512;2023-10-09T05:42:41;18.23;;;7.50;;
6442;SDS011;3254;47.372;8.512;2023-10-09T05:47:45;28.00;;;8.10;;
6442;SDS011;3254;47.372;8.512;2023-10-09T05:50:23;25.70;;;8.97;;
6442;SDS011;3254;47.372;8.512;2023-10-09T05:52:51;31.77;;;9.00;;
6442;SDS011;3254;47.372;8.512;2023-10-09T05:55:17;29.57;;;8.37;;
6442;SDS011;3254;47.372;8.512;2023-10-09T05:57:50;28.20;;;9.77;;
6442;SDS011;3254;47.372;8.512;2023-10-09T06:00:35;30.20;;;8.40;;
6442;SDS011;3254;47.372;8.512;2023-10-09T06:03:19;26.37;;;9.17;;
6442;SDS011;3254;47.372;8.512;2023-10-09T06:05:52;20.50;;;9.20;;
6442;SDS011;3254;47.372;8.512;2023-10-09T06:08:19;23.00;;;8.90;;
6442;SDS011;3254;47.372;8.512;2023-10-09T06:11:04;40.53;;;9.23;;
6442;SDS011;3254;47.372;8.512;2023-10-09T06:13:48;32.00;;;9.57;;
6442;SDS011;3254;47.372;8.512;2023-10-09T06:16:27;26.37;;;7.53;;
6442;SDS011;3254;47.372;8.512;2023-10-09T06:19:13;35.37;;;8.10;;
6442;SDS011;3254;47.372;8.512;2023-10-09T06:21:51;26.43;;;7.93;;
6442;SDS011;3254;47.372;8.512;2023-10-09T06:24:20;27.83;;;7.93;;
6442;SDS011;3254;47.372;8.512;2023-10-09T06:26:50;30.67;;;7.50;;
6442;SDS011;3254;47.372;8.512;2023-10-09T06:29:28;37.97;;;9.33;;
6442;SDS011;3254;47.372;8.512;2023-10-09T06:32:03;37.63;;;8.07;;
6442;SDS011;3254;47.372;8.512;2023-10-09T06:34:44;36.57;;;9.77;;
6442;SDS011;3254;47.372;8.512;2023-10-09T06:37:17;31.40;;;7.40;;
6442;SDS011;3254;47.372;8.512;2023-10-09T06:39:44;28.83;;;6.90;;
6442;SDS011;3254;47.372;8.512;2023-10-09T06:42:36;25.60;;;9.30;;
6442;SDS011;3254;47.372;8.512;2023-10-09T06:45:09;24.30;;;7.53;;
6442;SDS011;3254;47.372;8.512;2023-10-09T06:47:50;38.67;;;8.63;;
6442;SDS011;3254;47.372;8.512;2023-10-09T06:50:36;20.33;;;7.33;;
6442;SDS011;3254;47.372;8.512;2023-10-09T06:53:40;22.17;;;7.60;;
6442;SDS011;3254;47.372;8.512;2023-10-09T06:58:59;24.03;;;7.97;;
6442;SDS011;3254;47.372;8.512;2023-10-09T07:01:41;20.60;;;7.80;;
6442;SDS011;3254;47.372;8.512;2023-10-09T07:04:16;38.93;;;9.03;;
6442;SDS011;3254;47.372;8.512;2023-10-09T07:06:48;31.53;;;8.47;;
6442;SDS011;3254;47.372;8.512;2023-10-09T07:09:16;26.70;;;8.20;;
6442;SDS011;3254;47.372;8.512;2023-10-09T07:11:45;36.10;;;7.90;;
6442;SDS011;3254;47.372;8.512;2023-10-09T07:14:15;20.63;;;7.27;;
6442;SDS011;3254;47.372;8.512;2023-10-09T07:17:01;32.20;;;8.63;;
6442;SDS011;3254;47.372;8.512;2023-10-09T07:19:53;50.70;;;9.93;;
6442;SDS011;3254;47.372;8.512;2023-10-09T07:22:36;34.83;;;8.30;;
6442;SDS011;3254;47.372;8.512;2023-10-09T07:25:19;32.97;;;8.83;;
6442;SDS011;3254;47.372;8.512;2023-10-09T07:28:04;33.70;;;8.60;;
6442;SDS011;3254;47.372;8.512;2023-10-09T07:30:43;29.20;;;7.53;;
6442;SDS011;3254;47.372;8.512;2023-10-09T07:33:11;25.33;;;7.27;;
6442;SDS011;3254;47.372;8.512;2023-10-09T07:35:37;26.73;;;6.30;;
6442;SDS011;3254;47.372;8.512;2023-10-09T07:38:15;34.70;;;7.37;;
6442;SDS011;3254;47.372;8.512;2023-10-09T07:40:45;25.87;;;7.40;;
6442;SDS011;3254;47.372;8.512;2023-10-09T07:43:43;18.43;;;5.67;;
6442;SDS011;3254;47.372;8.512;2023-10-09T07:46:09;24.23;;;6.27;;
6442;SDS011;3254;47.372;8.512;2023-10-09T07:48:58;28.70;;;6.47;;
6442;SDS011;3254;47.372;8.512;2023-10-09T07:51:25;18.73;;;5.87;;
6442;SDS011;3254;47.372;8.512;2023-10-09T07:54:01;17.00;;;6.33;;
6442;SDS011;3254;47.372;8.512;2023-10-09T07:56:40;31.17;;;6.87;;
6442;SDS011;3254;47.372;8.512;2023-10-09T07:59:07;28.10;;;6.03;;
6442;SDS011;3254;47.372;8.512;2023-10-09T08:01:37;23.80;;;6.80;;
6442;SDS011;3254;47.372;8.512;2023-10-09T08:04:20;28.87;;;7.23;;
6442;SDS011;3254;47.372;8.512;2023-10-09T08:07:11;19.70;;;6.90;;
6442;SDS011;3254;47.372;8.512;2023-10-09T08:09:47;26.53;;;8.33;;
6442;SDS011;3254;47.372;8.512;2023-10-09T08:12:34;33.60;;;7.23;;
6442;SDS011;3254;47.372;8.512;2023-10-09T08:15:15;28.27;;;6.73;;
6442;SDS011;3254;47.372;8.512;2023-10-09T08:17:48;34.53;;;6.90;;
6442;SDS011;3254;47.372;8.512;2023-10-09T08:20:28;19.33;;;7.30;;
6442;SDS011;3254;47.372;8.512;2023-10-09T08:23:14;21.73;;;5.97;;
6442;SDS011;3254;47.372;8.512;2023-10-09T08:25:58;33.03;;;8.83;;
6442;SDS011;3254;47.372;8.512;2023-10-09T08:28:43;34.27;;;7.90;;
6442;SDS011;3254;47.372;8.512;2023-10-09T08:31:19;44.87;;;8.63;;
6442;SDS011;3254;47.372;8.512;2023-10-09T08:34:11;21.30;;;6.40;;
6442;SDS011;3254;47.372;8.512;2023-10-09T08:36:49;29.57;;;6.33;;
6442;SDS011;3254;47.372;8.512;2023-10-09T08:39:17;36.70;;;7.90;;
6442;SDS011;3254;47.372;8.512;2023-10-09T08:41:53;28.67;;;7.13;;
6442;SDS011;3254;47.372;8.512;2023-10-09T08:44:28;22.43;;;6.57;;
6442;SDS011;3254;47.372;8.512;2023-10-09T08:46:56;27.47;;;6.73;;
6442;SDS011;3254;47.372;8.512;2023-10-09T08:49:25;17.67;;;6.00;;
6442;SDS011;3254;47.372;8.512;2023-10-09T08:51:51;22.43;;;6.93;;
6442;SDS011;3254;47.372;8.512;2023-10-09T08:54:19;27.40;;;7.53;;
6442;SDS011;3254;47.372;8.512;2023-10-09T08:56:45;31.07;;;8.03;;
6442;SDS011;3254;47.372;8.512;2023-10-09T08:59:15;26.07;;;7.30;;
6442;SDS011;3254;47.372;8.512;2023-10-09T09:01:45;21.60;;;6.97;;
6442;SDS011;3254;47.372;8.512;2023-10-09T09:07:04;35.30;;;7.70;;
6442;SDS011;3254;47.372;8.512;2023-10-09T09:09:57;22.10;;;5.43;;
6442;SDS011;3254;47.372;8.512;2023-10-09T09:12:29;22.67;;;5.43;;
6442;SDS011;3254;47.372;8.512;2023-10-09T09:15:03;26.00;;;6.33;;
6442;SDS011;3254;47.372;8.512;2023-10-09T09:17:37;18.00;;;4.70;;
6442;SDS011;3254;47.372;8.512;2023-10-09T09:20:23;25.60;;;6.50;;
6442;SDS011;3254;47.372;8.512;2023-10-09T09:22:55;39.67;;;6.83;;
6442;SDS011;3254;47.372;8.512;2023-10-09T09:25:21;23.83;;;5.47;;
6442;SDS011;3254;47.372;8.512;2023-10-09T09:27:49;22.77;;;5.80;;
6442;SDS011;3254;47.372;8.512;2023-10-09T09:30:27;21.37;;;4.13;;
6442;SDS011;3254;47.372;8.512;2023-10-09T09:32:58;22.70;;;5.33;;
6442;SDS011;3254;47.372;8.512;2023-10-09T09:35:57;29.50;;;4.40;;
6442;SDS011;3254;47.372;8.512;2023-10-09T09:38:29;31.27;;;5.30;;
6442;SDS011;3254;47.372;8.512;2023-10-09T09:41:15;20.30;;;5.23;;
6442;SDS011;3254;47.372;8.512;2023-10-09T09:43:58;21.67;;;4.20;;
6442;SDS011;3254;47.372;8.512;2023-10-09T09:46:33;17.57;;;4.70;;
6442;SDS011;3254;47.372;8.512;2023-10-09T09:49:06;19.40;;;4.77;;
6442;SDS011;3254;47.372;8.512;2023-10-09T09:51:41;18.70;;;4.60;;
6442;SDS011;3254;47.372;8.512;2023-10-09T09:54:11;24.47;;;6.07;;
6442;SDS011;3254;47.372;8.512;2023-10-09T09:56:44;33.93;;;5.40;;
6442;SDS011;3254;47.372;8.512;2023-10-09T09:59:24;22.43;;;5.40;;
6442;SDS011;3254;47.372;8.512;2023-10-09T10:01:55;16.53;;;4.60;;
6442;SDS011;3254;47.372;8.512;2023-10-09T10:04:24;18.50;;;4.93;;
6442;SDS011;3254;47.372;8.512;2023-10-09T10:06:54;24.50;;;5.90;;
6442;SDS011;3254;47.372;8.512;2023-10-09T10:09:40;19.53;;;5.70;;
6442;SDS011;3254;47.372;8.512;2023-10-09T10:12:09;26.53;;;5.80;;
6442;SDS011;3254;47.372;8.512;2023-10-09T10:14:51;41.03;;;5.23;;
6442;SDS011;3254;47.372;8.512;2023-10-09T10:17:25;22.87;;;4.93;;
6442;SDS011;3254;47.372;8.512;2023-10-09T10:22:39;23.00;;;4.97;;
6442;SDS011;3254;47.372;8.512;2023-10-09T10:25:05;28.90;;;5.10;;
6442;SDS011;3254;47.372;8.512;2023-10-09T10:27:35;20.07;;;4.40;;
6442;SDS011;3254;47.372;8.512;2023-10-09T10:30:27;20.13;;;4.70;;
6442;SDS011;3254;47.372;8.512;2023-10-09T10:32:59;20.73;;;4.97;;
6442;SDS011;3254;47.372;8.512;2023-10-09T10:35:35;30.83;;;4.57;;
6442;SDS011;3254;47.372;8.512;2023-10-09T10:43:56;20.73;;;5.80;;
6442;SDS011;3254;47.372;8.512;2023-10-09T10:46:25;23.73;;;6.27;;
6442;SDS011;3254;47.372;8.512;2023-10-09T10:49:02;25.03;;;5.97;;
6442;SDS011;3254;47.372;8.512;2023-10-09T10:51:42;23.17;;;4.50;;
6442;SDS011;3254;47.372;8.512;2023-10-09T10:54:24;25.37;;;5.10;;
6442;SDS011;3254;47.372;8.512;2023-10-09T10:57:14;19.43;;;5.10;;
6442;SDS011;3254;47.372;8.512;2023-10-09T11:00:16;21.93;;;4.93;;
6442;SDS011;3254;47.372;8.512;2023-10-09T11:03:01;14.73;;;4.47;;
6442;SDS011;3254;47.372;8.512;2023-10-09T11:05:39;22.93;;;4.23;;
6442;SDS011;3254;47.372;8.512;2023-10-09T11:08:10;21.50;;;4.90;;
6442;SDS011;3254;47.372;8.512;2023-10-09T11:10:37;25.93;;;4.97;;
6442;SDS011;3254;47.372;8.512;2023-10-09T11:13:24;19.63;;;5.23;;
6442;SDS011;3254;47.372;8.512;2023-10-09T11:16:03;46.70;;;5.23;;
6442;SDS011;3254;47.372;8.512;2023-10-09T11:18:49;21.60;;;4.57;;
6442;SDS011;3254;47.372;8.512;2023-10-09T11:21:14;19.67;;;5.33;;
6442;SDS011;3254;47.372;8.512;2023-10-09T11:23:43;24.27;;;4.77;;
6442;SDS011;3254;47.372;8.512;2023-10-09T11:26:24;18.30;;;5.33;;
6442;SDS011;3254;47.372;8.512;2023-10-09T11:32:20;33.07;;;5.00;;
6442;SDS011;3254;47.372;8.512;2023-10-09T11:35:12;23.77;;;4.87;;
6442;SDS011;3254;47.372;8.512;2023-10-09T11:37:36;25.10;;;5.10;;
6442;SDS011;3254;47.372;8.512;2023-10-09T11:40:07;27.03;;;5.37;;
6442;SDS011;3254;47.372;8.512;2023-10-09T11:43:17;27.80;;;6.03;;
6442;SDS011;3254;47.372;8.512;2023-10-09T11:45:45;34.00;;;5.70;;
6442;SDS011;3254;47.372;8.512;2023-10-09T11:48:21;25.80;;;5.90;;
6442;SDS011;3254;47.372;8.512;2023-10-09T11:50:55;32.07;;;6.97;;
6442;SDS011;3254;47.372;8.512;2023-10-09T11:53:40;24.13;;;4.73;;
6442;SDS011;3254;47.372;8.512;2023-10-09T11:56:09;25.87;;;4.77;;
6442;SDS011;3254;47.372;8.512;2023-10-09T11:58:48;18.40;;;4.83;;
6442;SDS011;3254;47.372;8.512;2023-10-09T12:01:18;20.70;;;4.23;;
6442;SDS011;3254;47.372;8.512;2023-10-09T12:03:47;22.57;;;5.43;;
6442;SDS011;3254;47.372;8.512;2023-10-09T12:06:21;22.83;;;5.47;;
6442;SDS011;3254;47.372;8.512;2023-10-09T12:08:47;30.40;;;6.20;;
6442;SDS011;3254;47.372;8.512;2023-10-09T12:11:13;16.30;;;5.30;;
6442;SDS011;3254;47.372;8.512;2023-10-09T12:13:47;20.03;;;4.57;;
6442;SDS011;3254;47.372;8.512;2023-10-09T12:16:21;22.37;;;5.30;;
6442;SDS011;3254;47.372;8.512;2023-10-09T12:18:47;27.30;;;6.13;;
6442;SDS011;3254;47.372;8.512;2023-10-09T12:21:18;22.53;;;5.40;;
6442;SDS011;3254;47.372;8.512;2023-10-09T12:23:48;20.77;;;6.60;;
6442;SDS011;3254;47.372;8.512;2023-10-09T12:26:14;23.83;;;5.90;;
6442;SDS011;3254;47.372;8.512;2023-10-09T12:28:43;27.87;;;5.47;;
6442;SDS011;3254;47.372;8.512;2023-10-09T12:31:11;27.23;;;5.60;;
6442;SDS011;3254;47.372;8.512;2023-10-09T12:33:40;21.30;;;5.50;;
6442;SDS011;3254;47.372;8.512;2023-10-09T12:36:05;27.10;;;6.13;;
6442;SDS011;3254;47.372;8.512;2023-10-09T12:38:32;17.10;;;5.50;;
6442;SDS011;3254;47.372;8.512;2023-10-09T12:41:02;19.90;;;5.30;;
6442;SDS011;3254;47.372;8.512;2023-10-09T12:43:33;24.83;;;6.53;;
6442;SDS011;3254;47.372;8.512;2023-10-09T12:46:06;23.97;;;5.80;;
6442;SDS011;3254;47.372;8.512;2023-10-09T12:48:32;18.63;;;5.53;;
6442;SDS011;3254;47.372;8.512;2023-10-09T12:51:01;23.90;;;5.37;;
6442;SDS011;3254;47.372;8.512;2023-10-09T12:53:35;39.57;;;5.87;;
6442;SDS011;3254;47.372;8.512;2023-10-09T12:56:06;25.80;;;5.83;;
6442;SDS011;3254;47.372;8.512;2023-10-09T12:58:34;20.37;;;6.13;;
6442;SDS011;3254;47.372;8.512;2023-10-09T13:01:02;27.67;;;6.40;;
6442;SDS011;3254;47.372;8.512;2023-10-09T13:03:37;27.23;;;5.93;;
6442;SDS011;3254;47.372;8.512;2023-10-09T13:06:05;26.77;;;5.70;;
6442;SDS011;3254;47.372;8.512;2023-10-09T13:08:36;20.83;;;4.80;;
6442;SDS011;3254;47.372;8.512;2023-10-09T13:11:06;21.33;;;5.47;;
6442;SDS011;3254;47.372;8.512;2023-10-09T13:13:36;20.03;;;5.60;;
6442;SDS011;3254;47.372;8.512;2023-10-09T13:16:08;17.33;;;5.33;;
6442;SDS011;3254;47.372;8.512;2023-10-09T13:18:37;27.70;;;6.27;;
6442;SDS011;3254;47.372;8.512;2023-10-09T13:21:04;23.23;;;4.97;;
6442;SDS011;3254;47.372;8.512;2023-10-09T13:23:30;34.33;;;5.30;;
6442;SDS011;3254;47.372;8.512;2023-10-09T13:26:04;24.03;;;4.93;;
6442;SDS011;3254;47.372;8.512;2023-10-09T13:28:55;31.13;;;6.10;;
6442;SDS011;3254;47.372;8.512;2023-10-09T13:31:22;30.63;;;6.57;;
6442;SDS011;3254;47.372;8.512;2023-10-09T13:33:52;30.03;;;6.07;;
6442;SDS011;3254;47.372;8.512;2023-10-09T13:36:25;38.77;;;6.27;;
6442;SDS011;3254;47.372;8.512;2023-10-09T13:38:59;26.70;;;6.10;;
6442;SDS011;3254;47.372;8.512;2023-10-09T13:41:45;38.53;;;5.47;;
6442;SDS011;3254;47.372;8.512;2023-10-09T13:44:11;29.23;;;5.80;;
6442;SDS011;3254;47.372;8.512;2023-10-09T13:46:37;31.10;;;4.60;;
6442;SDS011;3254;47.372;8.512;2023-10-09T13:49:15;22.97;;;4.93;;
6442;SDS011;3254;47.372;8.512;2023-10-09T13:51:41;29.83;;;5.93;;
6442;SDS011;3254;47.372;8.512;2023-10-09T13:54:12;25.90;;;6.10;;
6442;SDS011;3254;47.372;8.512;2023-10-09T13:57:02;35.37;;;4.80;;
6442;SDS011;3254;47.372;8.512;2023-10-09T13:59:35;23.03;;;4.70;;
6442;SDS011;3254;47.372;8.512;2023-10-09T14:02:07;33.57;;;5.33;;
6442;SDS011;3254;47.372;8.512;2023-10-09T14:04:41;26.47;;;5.40;;
6442;SDS011;3254;47.372;8.512;2023-10-09T14:07:08;24.13;;;5.20;;
6442;SDS011;3254;47.372;8.512;2023-10-09T14:09:34;19.70;;;5.03;;
6442;SDS011;3254;47.372;8.512;2023-10-09T14:12:04;33.23;;;5.70;;
6442;SDS011;3254;47.372;8.512;2023-10-09T14:14:39;19.13;;;4.70;;
6442;SDS011;3254;47.372;8.512;2023-10-09T14:17:12;35.10;;;5.20;;
6442;SDS011;3254;47.372;8.512;2023-10-09T14:19:46;36.03;;;5.70;;
6442;SDS011;3254;47.372;8.512;2023-10-09T14:22:13;29.90;;;6.00;;
6442;SDS011;3254;47.372;8.512;2023-10-09T14:24:43;34.00;;;5.90;;
6442;SDS011;3254;47.372;8.512;2023-10-09T14:27:13;26.00;;;4.80;;
6442;SDS011;3254;47.372;8.512;2023-10-09T14:29:49;26.27;;;5.90;;
6442;SDS011;3254;47.372;8.512;2023-10-09T14:32:16;36.53;;;5.67;;
6442;SDS011;3254;47.372;8.512;2023-10-09T14:34:42;33.47;;;5.40;;
6442;SDS011;3254;47.372;8.512;2023-10-09T14:37:15;31.57;;;5.17;;
6442;SDS011;3254;47.372;8.512;2023-10-09T14:39:44;32.87;;;5.47;;
6442;SDS011;3254;47.372;8.512;2023-10-09T14:42:15;23.70;;;5.77;;
6442;SDS011;3254;47.372;8.512;2023-10-09T14:44:41;25.90;;;6.23;;
6442;SDS011;3254;47.372;8.512;2023-10-09T14:47:10;41.70;;;6.13;;
6442;SDS011;3254;47.372;8.512;2023-10-09T14:49:37;28.33;;;5.30;;
6442;SDS011;3254;47.372;8.512;2023-10-09T14:52:08;19.90;;;4.30;;
6442;SDS011;3254;47.372;8.512;2023-10-09T14:54:35;34.60;;;5.50;;
6442;SDS011;3254;47.372;8.512;2023-10-09T14:57:00;36.23;;;6.93;;
6442;SDS011;3254;47.372;8.512;2023-10-09T14:59:30;37.60;;;5.40;;
6442;SDS011;3254;47.372;8.512;2023-10-09T15:01:57;32.23;;;5.63;;
6442;SDS011;3254;47.372;8.512;2023-10-09T15:04:23;24.57;;;6.30;;
6442;SDS011;3254;47.372;8.512;2023-10-09T15:06:52;29.40;;;5.47;;
6442;SDS011;3254;47.372;8.512;2023-10-09T15:09:22;27.90;;;5.67;;
6442;SDS011;3254;47.372;8.512;2023-10-09T15:11:52;21.83;;;5.23;;
6442;SDS011;3254;47.372;8.512;2023-10-09T15:14:18;14.50;;;4.63;;
6442;SDS011;3254;47.372;8.512;2023-10-09T15:16:44;24.00;;;5.30;;
6442;SDS011;3254;47.372;8.512;2023-10-09T15:19:12;24.23;;;5.30;;
6442;SDS011;3254;47.372;8.512;2023-10-09T15:21:38;40.13;;;5.47;;
6442;SDS011;3254;47.372;8.512;2023-10-09T15:24:12;23.33;;;5.10;;
6442;SDS011;3254;47.372;8.512;2023-10-09T15:26:47;22.87;;;5.00;;
6442;SDS011;3254;47.372;8.512;2023-10-09T15:29:27;26.60;;;5.13;;
6442;SDS011;3254;47.372;8.512;2023-10-09T15:31:57;17.77;;;5.00;;
6442;SDS011;3254;47.372;8.512;2023-10-09T15:34:32;35.60;;;5.17;;
6442;SDS011;3254;47.372;8.512;2023-10-09T15:37:01;34.60;;;5.13;;
6442;SDS011;3254;47.372;8.512;2023-10-09T15:39:51;26.90;;;5.33;;
6442;SDS011;3254;47.372;8.512;2023-10-09T15:42:17;18.23;;;4.90;;
6442;SDS011;3254;47.372;8.512;2023-10-09T15:44:42;32.20;;;6.97;;
6442;SDS011;3254;47.372;8.512;2023-10-09T15:47:13;27.30;;;5.43;;
6442;SDS011;3254;47.372;8.512;2023-10-09T15:49:41;32.70;;;6.20;;
6442;SDS011;3254;47.372;8.512;2023-10-09T15:52:09;25.50;;;5.70;;
6442;SDS011;3254;47.372;8.512;2023-10-09T15:54:39;29.17;;;5.33;;
6442;SDS011;3254;47.372;8.512;2023-10-09T15:57:08;24.33;;;6.00;;
6442;SDS011;3254;47.372;8.512;2023-10-09T15:59:35;41.17;;;6.20;;
6442;SDS011;3254;47.372;8.512;2023-10-09T16:02:01;18.00;;;5.47;;
6442;SDS011;3254;47.372;8.512;2023-10-09T16:04:28;26.30;;;5.70;;
6442;SDS011;3254;47.372;8.512;2023-10-09T16:07:00;34.00;;;6.57;;
6442;SDS011;3254;47.372;8.512;2023-10-09T16:09:25;24.63;;;6.20;;